CheckWX is a tool to help pilots better visualize weather data.  It is not intended as a substitute for an official pre-flight weather briefing.

23:36:01 UTC

KPBF TAF
Pine Bluff Regional Grider Field Airport
Pine Bluff, Arkansas, USA
KPBF 241732Z 2418/2518 18010G17KT P6SM VCSH BKN010 OVC020 FM241900 23014G24KT P6SM VCTS SCT025CB BKN035 FM242200 25011G20KT P6SM BKN035 FM250000 26010G15KT P6SM BKN030 FM251200 28006KT P6SM BKN025

Feb-24@
18:00 UTC

Feb-24 @ 18:00 UTC

Feb-24@
19:00 UTC

Feb-24 @ 19:00 UTC

KPBF 241732Z 2418/2518 18010G17KT P6SM VCSH BKN010 OVC020

Expired

Wind
  • 180° at 10 KTS
  • {Gusting to 17 KTS
Cloud Levels
  • Broken at 1,000' AGL
  • Overcast at 2,000' AGL

Feb-24@
19:00 UTC

Feb-24 @ 19:00 UTC

Feb-24@
22:00 UTC

Feb-24 @ 22:00 UTC

FM241900 23014G24KT P6SM VCTS SCT025CB BKN035

Expired

Wind
  • 230° at 14 KTS
  • {Gusting to 24 KTS
Conditions
Area Thunderstorm
Cloud Levels
  • Scattered at 2,500' AGL
  • Broken at 3,500' AGL

Feb-24@
22:00 UTC

Feb-24 @ 22:00 UTC

Feb-25@
00:00 UTC

Feb-25 @ 00:00 UTC

FM242200 25011G20KT P6SM BKN035

From

From Standard forecast or significant change

Wind
  • 250° at 11 KTS
  • {Gusting to 20 KTS
Cloud Levels
  • Broken at 3,500' AGL

Feb-25@
00:00 UTC

Feb-25 @ 00:00 UTC

Feb-25@
12:00 UTC

Feb-25 @ 12:00 UTC

FM250000 26010G15KT P6SM BKN030

From

From Standard forecast or significant change

Wind
  • 260° at 10 KTS
  • {Gusting to 15 KTS
Cloud Levels
  • Broken at 3,000' AGL

Feb-25@
12:00 UTC

Feb-25 @ 12:00 UTC

Feb-25@
18:00 UTC

Feb-25 @ 18:00 UTC

FM251200 28006KT P6SM BKN025

From

From Standard forecast or significant change

Wind
  • 280° at 6 KTS
Cloud Levels
  • Broken at 2,500' AGL